sensor_id;sensor_type;location;lat;lon;timestamp;pressure;altitude;pressure_sealevel;temperature;humidity
64876;BME280;51369;49.862;9.908;2023-07-31T00:00:12;98194.81;;;19.47;58.29
64876;BME280;51369;49.862;9.908;2023-07-31T00:02:37;98191.19;;;19.47;57.77
64876;BME280;51369;49.862;9.908;2023-07-31T00:05:03;98193.06;;;19.46;57.92
64876;BME280;51369;49.862;9.908;2023-07-31T00:07:28;98189.31;;;19.47;58.10
64876;BME280;51369;49.862;9.908;2023-07-31T00:09:54;98184.72;;;19.48;58.20
64876;BME280;51369;49.862;9.908;2023-07-31T00:12:20;98184.59;;;19.49;57.95
64876;BME280;51369;49.862;9.908;2023-07-31T00:14:45;98183.72;;;19.49;58.05
64876;BME280;51369;49.862;9.908;2023-07-31T00:17:11;98187.34;;;19.49;57.46
64876;BME280;51369;49.862;9.908;2023-07-31T00:19:37;98181.13;;;19.47;57.84
64876;BME280;51369;49.862;9.908;2023-07-31T00:22:03;98186.34;;;19.50;58.25
64876;BME280;51369;49.862;9.908;2023-07-31T00:24:28;98188.19;;;19.50;57.42
64876;BME280;51369;49.862;9.908;2023-07-31T00:26:54;98183.59;;;19.50;57.64
64876;BME280;51369;49.862;9.908;2023-07-31T00:29:20;98178.13;;;19.50;58.15
64876;BME280;51369;49.862;9.908;2023-07-31T00:31:45;98177.38;;;19.48;58.32
64876;BME280;51369;49.862;9.908;2023-07-31T00:34:10;98173.78;;;19.48;58.17
64876;BME280;51369;49.862;9.908;2023-07-31T00:36:36;98167.53;;;19.46;58.38
64876;BME280;51369;49.862;9.908;2023-07-31T00:39:01;98180.38;;;19.45;59.00
64876;BME280;51369;49.862;9.908;2023-07-31T00:41:27;98170.53;;;19.43;58.90
64876;BME280;51369;49.862;9.908;2023-07-31T00:43:52;98176.25;;;19.40;58.83
64876;BME280;51369;49.862;9.908;2023-07-31T00:46:17;98170.16;;;19.36;59.13
64876;BME280;51369;49.862;9.908;2023-07-31T00:48:43;98172.16;;;19.34;59.23
64876;BME280;51369;49.862;9.908;2023-07-31T00:51:08;98182.50;;;19.31;59.34
64876;BME280;51369;49.862;9.908;2023-07-31T00:53:35;98172.66;;;19.28;59.75
64876;BME280;51369;49.862;9.908;2023-07-31T00:56:01;98180.25;;;19.25;59.87
64876;BME280;51369;49.862;9.908;2023-07-31T00:58:27;98166.69;;;19.23;59.84
64876;BME280;51369;49.862;9.908;2023-07-31T01:00:52;98172.28;;;19.22;59.93
64876;BME280;51369;49.862;9.908;2023-07-31T01:03:19;98166.06;;;19.19;60.18
64876;BME280;51369;49.862;9.908;2023-07-31T01:06:04;98178.00;;;19.18;60.08
64876;BME280;51369;49.862;9.908;2023-07-31T01:08:54;98170.78;;;19.17;60.64
64876;BME280;51369;49.862;9.908;2023-07-31T01:11:27;98169.91;;;19.17;60.74
64876;BME280;51369;49.862;9.908;2023-07-31T01:13:57;98161.72;;;19.17;60.35
64876;BME280;51369;49.862;9.908;2023-07-31T01:16:22;98166.31;;;19.16;60.07
64876;BME280;51369;49.862;9.908;2023-07-31T01:18:48;98165.56;;;19.14;60.01
64876;BME280;51369;49.862;9.908;2023-07-31T01:24:20;98158.59;;;19.10;60.47
64876;BME280;51369;49.862;9.908;2023-07-31T01:26:50;98157.59;;;19.11;60.53
64876;BME280;51369;49.862;9.908;2023-07-31T01:29:32;98145.03;;;19.09;61.19
64876;BME280;51369;49.862;9.908;2023-07-31T01:32:02;98136.81;;;19.09;60.91
64876;BME280;51369;49.862;9.908;2023-07-31T01:34:29;98135.25;;;19.06;60.62
64876;BME280;51369;49.862;9.908;2023-07-31T01:36:55;98138.09;;;19.05;60.76
64876;BME280;51369;49.862;9.908;2023-07-31T01:39:22;98128.16;;;19.04;60.90
64876;BME280;51369;49.862;9.908;2023-07-31T01:41:47;98128.41;;;19.01;60.81
64876;BME280;51369;49.862;9.908;2023-07-31T01:44:13;98128.41;;;19.01;60.98
64876;BME280;51369;49.862;9.908;2023-07-31T01:46:38;98123.94;;;19.00;61.10
64876;BME280;51369;49.862;9.908;2023-07-31T01:49:03;98125.91;;;18.98;61.28
64876;BME280;51369;49.862;9.908;2023-07-31T01:51:30;98116.09;;;18.95;61.68
64876;BME280;51369;49.862;9.908;2023-07-31T01:53:59;98126.16;;;18.95;61.90
64876;BME280;51369;49.862;9.908;2023-07-31T01:56:25;98118.06;;;18.93;61.21
64876;BME280;51369;49.862;9.908;2023-07-31T01:58:50;98115.47;;;18.92;61.61
64876;BME280;51369;49.862;9.908;2023-07-31T02:01:16;98118.19;;;18.92;61.53
64876;BME280;51369;49.862;9.908;2023-07-31T02:03:41;98117.22;;;18.93;61.90
64876;BME280;51369;49.862;9.908;2023-07-31T02:06:07;98126.28;;;18.93;61.47
64876;BME280;51369;49.862;9.908;2023-07-31T02:08:33;98117.22;;;18.93;61.69
64876;BME280;51369;49.862;9.908;2023-07-31T02:10:59;98110.88;;;18.92;61.23
64876;BME280;51369;49.862;9.908;2023-07-31T02:13:24;98115.47;;;18.92;61.63
64876;BME280;51369;49.862;9.908;2023-07-31T02:15:50;98106.38;;;18.91;61.48
64876;BME280;51369;49.862;9.908;2023-07-31T02:18:16;98100.16;;;18.89;61.86
64876;BME280;51369;49.862;9.908;2023-07-31T02:20:41;98090.22;;;18.88;61.63
64876;BME280;51369;49.862;9.908;2023-07-31T02:23:07;98097.56;;;18.88;62.00
64876;BME280;51369;49.862;9.908;2023-07-31T02:25:32;98102.28;;;18.85;62.08
64876;BME280;51369;49.862;9.908;2023-07-31T02:27:58;98097.81;;;18.84;62.25
64876;BME280;51369;49.862;9.908;2023-07-31T02:30:23;98096.06;;;18.83;61.59
64876;BME280;51369;49.862;9.908;2023-07-31T02:32:49;98097.81;;;18.84;62.20
64876;BME280;51369;49.862;9.908;2023-07-31T02:35:15;98097.81;;;18.84;61.91
64876;BME280;51369;49.862;9.908;2023-07-31T02:37:42;98091.47;;;18.84;62.13
64876;BME280;51369;49.862;9.908;2023-07-31T02:40:07;98089.72;;;18.83;62.12
64876;BME280;51369;49.862;9.908;2023-07-31T02:42:33;98091.47;;;18.84;61.59
64876;BME280;51369;49.862;9.908;2023-07-31T02:44:58;98087.13;;;18.81;62.16
64876;BME280;51369;49.862;9.908;2023-07-31T02:47:24;98097.06;;;18.82;62.60
64876;BME280;51369;49.862;9.908;2023-07-31T02:49:49;98087.13;;;18.81;62.44
64876;BME280;51369;49.862;9.908;2023-07-31T02:52:16;98081.63;;;18.81;62.37
64876;BME280;51369;49.862;9.908;2023-07-31T02:54:41;98076.28;;;18.80;62.24
64876;BME280;51369;49.862;9.908;2023-07-31T02:57:07;98082.75;;;18.79;62.31
64876;BME280;51369;49.862;9.908;2023-07-31T02:59:32;98087.59;;;18.75;62.09
64876;BME280;51369;49.862;9.908;2023-07-31T03:01:57;98089.59;;;18.73;62.40
64876;BME280;51369;49.862;9.908;2023-07-31T03:04:25;98097.06;;;18.71;62.48
64876;BME280;51369;49.862;9.908;2023-07-31T03:06:50;98088.09;;;18.69;62.74
64876;BME280;51369;49.862;9.908;2023-07-31T03:09:16;98090.97;;;18.68;62.87
64876;BME280;51369;49.862;9.908;2023-07-31T03:11:41;98089.22;;;18.67;63.01
64876;BME280;51369;49.862;9.908;2023-07-31T03:14:06;98080.25;;;18.65;62.87
64876;BME280;51369;49.862;9.908;2023-07-31T03:16:32;98081.25;;;18.64;62.96
64876;BME280;51369;49.862;9.908;2023-07-31T03:18:57;98083.13;;;18.63;63.01
64876;BME280;51369;49.862;9.908;2023-07-31T03:21:23;98074.16;;;18.61;62.88
64876;BME280;51369;49.862;9.908;2023-07-31T03:23:48;98081.38;;;18.62;63.53
64876;BME280;51369;49.862;9.908;2023-07-31T03:26:13;98068.69;;;18.61;62.84
64876;BME280;51369;49.862;9.908;2023-07-31T03:28:39;98065.97;;;18.61;62.88
64876;BME280;51369;49.862;9.908;2023-07-31T03:31:04;98059.63;;;18.61;63.05
64876;BME280;51369;49.862;9.908;2023-07-31T03:33:31;98066.94;;;18.60;63.31
64876;BME280;51369;49.862;9.908;2023-07-31T03:35:57;98070.91;;;18.56;63.84
64876;BME280;51369;49.862;9.908;2023-07-31T03:38:22;98072.88;;;18.54;63.73
64876;BME280;51369;49.862;9.908;2023-07-31T03:40:48;98070.16;;;18.54;64.05
64876;BME280;51369;49.862;9.908;2023-07-31T03:43:13;98076.50;;;18.54;63.89
64876;BME280;51369;49.862;9.908;2023-07-31T03:45:38;98073.13;;;18.51;64.03
64876;BME280;51369;49.862;9.908;2023-07-31T03:48:04;98075.00;;;18.50;64.16
64876;BME280;51369;49.862;9.908;2023-07-31T03:50:30;98073.13;;;18.51;63.59
64876;BME280;51369;49.862;9.908;2023-07-31T03:52:55;98065.91;;;18.50;64.41
64876;BME280;51369;49.862;9.908;2023-07-31T03:55:21;98070.53;;;18.49;63.80
64876;BME280;51369;49.862;9.908;2023-07-31T03:57:47;98073.38;;;18.48;64.14
64876;BME280;51369;49.862;9.908;2023-07-31T04:00:13;98076.09;;;18.48;64.39
64876;BME280;51369;49.862;9.908;2023-07-31T04:02:40;98068.03;;;18.46;64.38
64876;BME280;51369;49.862;9.908;2023-07-31T04:05:06;98071.63;;;18.47;64.11
64876;BME280;51369;49.862;9.908;2023-07-31T04:07:32;98078.09;;;18.46;63.77
64876;BME280;51369;49.862;9.908;2023-07-31T04:09:58;98070.88;;;18.45;64.34
64876;BME280;51369;49.862;9.908;2023-07-31T04:12:23;98068.16;;;18.45;64.71
64876;BME280;51369;49.862;9.908;2023-07-31T04:14:49;98070.88;;;18.45;64.48
64876;BME280;51369;49.862;9.908;2023-07-31T04:17:15;98067.28;;;18.44;64.49
64876;BME280;51369;49.862;9.908;2023-07-31T04:19:40;98067.28;;;18.44;64.70
64876;BME280;51369;49.862;9.908;2023-07-31T04:22:05;98067.16;;;18.46;64.16
64876;BME280;51369;49.862;9.908;2023-07-31T04:24:31;98069.88;;;18.46;64.46
64876;BME280;51369;49.862;9.908;2023-07-31T04:26:56;98061.69;;;18.46;64.76
64876;BME280;51369;49.862;9.908;2023-07-31T04:29:22;98068.78;;;18.48;65.01
64876;BME280;51369;49.862;9.908;2023-07-31T04:31:48;98070.63;;;18.48;63.92
64876;BME280;51369;49.862;9.908;2023-07-31T04:34:13;98075.13;;;18.49;64.16
64876;BME280;51369;49.862;9.908;2023-07-31T04:36:39;98075.00;;;18.50;63.64
64876;BME280;51369;49.862;9.908;2023-07-31T04:39:04;98072.25;;;18.50;63.95
64876;BME280;51369;49.862;9.908;2023-07-31T04:41:29;98074.00;;;18.51;63.90
64876;BME280;51369;49.862;9.908;2023-07-31T04:43:55;98073.00;;;18.52;63.56
64876;BME280;51369;49.862;9.908;2023-07-31T04:46:20;98073.63;;;18.56;63.32
64876;BME280;51369;49.862;9.908;2023-07-31T04:48:45;98075.38;;;18.57;63.60
64876;BME280;51369;49.862;9.908;2023-07-31T04:51:11;98076.91;;;18.61;63.71
64876;BME280;51369;49.862;9.908;2023-07-31T04:53:37;98075.91;;;18.62;63.76
64876;BME280;51369;49.862;9.908;2023-07-31T04:56:02;98069.31;;;18.65;63.82
64876;BME280;51369;49.862;9.908;2023-07-31T04:58:28;98073.69;;;18.67;63.99
64876;BME280;51369;49.862;9.908;2023-07-31T05:00:54;98067.09;;;18.70;64.26
64876;BME280;51369;49.862;9.908;2023-07-31T05:03:19;98069.47;;;18.74;63.31
64876;BME280;51369;49.862;9.908;2023-07-31T05:05:44;98073.81;;;18.77;62.70
64876;BME280;51369;49.862;9.908;2023-07-31T05:08:10;98065.34;;;18.80;63.61
64876;BME280;51369;49.862;9.908;2023-07-31T05:10:35;98068.72;;;18.83;63.44
64876;BME280;51369;49.862;9.908;2023-07-31T05:13:00;98062.13;;;18.86;63.41
64876;BME280;51369;49.862;9.908;2023-07-31T05:15:26;98059.00;;;18.91;63.64
64876;BME280;51369;49.862;9.908;2023-07-31T05:17:51;98063.38;;;18.93;62.84
64876;BME280;51369;49.862;9.908;2023-07-31T05:20:16;98063.84;;;18.98;63.13
64876;BME280;51369;49.862;9.908;2023-07-31T05:22:42;98059.75;;;19.04;63.18
64876;BME280;51369;49.862;9.908;2023-07-31T05:25:08;98057.34;;;19.10;63.06
64876;BME280;51369;49.862;9.908;2023-07-31T05:27:33;98061.44;;;19.16;62.86
64876;BME280;51369;49.862;9.908;2023-07-31T05:29:59;98059.19;;;19.21;62.87
64876;BME280;51369;49.862;9.908;2023-07-31T05:32:24;98052.47;;;19.25;63.28
64876;BME280;51369;49.862;9.908;2023-07-31T05:34:52;98057.44;;;19.31;62.73
64876;BME280;51369;49.862;9.908;2023-07-31T05:37:18;98061.53;;;19.37;63.22
64876;BME280;51369;49.862;9.908;2023-07-31T05:39:44;98060.28;;;19.41;63.25
64876;BME280;51369;49.862;9.908;2023-07-31T05:42:09;98068.97;;;19.46;62.48
64876;BME280;51369;49.862;9.908;2023-07-31T05:44:34;98062.03;;;19.53;62.43
64876;BME280;51369;49.862;9.908;2023-07-31T05:47:00;98059.50;;;19.61;62.52
64876;BME280;51369;49.862;9.908;2023-07-31T05:49:25;98056.00;;;19.70;63.24
64876;BME280;51369;49.862;9.908;2023-07-31T05:51:51;98050.72;;;19.78;62.82
64876;BME280;51369;49.862;9.908;2023-07-31T05:54:16;98053.81;;;19.85;62.46
64876;BME280;51369;49.862;9.908;2023-07-31T05:56:41;98048.69;;;19.92;61.93
64876;BME280;51369;49.862;9.908;2023-07-31T05:59:08;98045.41;;;19.98;62.61
64876;BME280;51369;49.862;9.908;2023-07-31T06:01:34;98032.78;;;20.06;62.59
64876;BME280;51369;49.862;9.908;2023-07-31T06:03:59;98036.59;;;20.15;61.83
64876;BME280;51369;49.862;9.908;2023-07-31T06:06:24;98039.41;;;20.25;61.25
64876;BME280;51369;49.862;9.908;2023-07-31T06:08:50;98037.75;;;20.33;61.34
64876;BME280;51369;49.862;9.908;2023-07-31T06:11:16;98040.84;;;20.40;60.77
64876;BME280;51369;49.862;9.908;2023-07-31T06:13:41;98038.69;;;20.43;60.30
64876;BME280;51369;49.862;9.908;2023-07-31T06:16:07;98038.56;;;20.45;60.18
64876;BME280;51369;49.862;9.908;2023-07-31T06:18:32;98047.53;;;20.47;59.94
64876;BME280;51369;49.862;9.908;2023-07-31T06:20:58;98044.66;;;20.49;59.81
64876;BME280;51369;49.862;9.908;2023-07-31T06:23:23;98051.00;;;20.49;59.43
64876;BME280;51369;49.862;9.908;2023-07-31T06:25:49;98046.38;;;20.50;59.59
64876;BME280;51369;49.862;9.908;2023-07-31T06:28:14;98040.91;;;20.50;59.56
64876;BME280;51369;49.862;9.908;2023-07-31T06:30:39;98045.38;;;20.51;59.36
64876;BME280;51369;49.862;9.908;2023-07-31T06:33:05;98054.34;;;20.53;60.01
64876;BME280;51369;49.862;9.908;2023-07-31T06:35:30;98053.34;;;20.54;59.83
64876;BME280;51369;49.862;9.908;2023-07-31T06:37:56;98053.06;;;20.57;59.94
64876;BME280;51369;49.862;9.908;2023-07-31T06:40:22;98060.88;;;20.61;59.31
64876;BME280;51369;49.862;9.908;2023-07-31T06:42:48;98060.34;;;20.67;59.69
64876;BME280;51369;49.862;9.908;2023-07-31T06:45:13;98059.22;;;20.70;59.99
64876;BME280;51369;49.862;9.908;2023-07-31T06:47:39;98066.03;;;20.75;60.09
64876;BME280;51369;49.862;9.908;2023-07-31T06:50:05;98065.75;;;20.78;59.88
64876;BME280;51369;49.862;9.908;2023-07-31T06:52:30;98049.72;;;20.84;59.85
64876;BME280;51369;49.862;9.908;2023-07-31T06:55:04;98055.78;;;20.87;59.67
64876;BME280;51369;49.862;9.908;2023-07-31T06:57:40;98053.38;;;20.94;60.04
64876;BME280;51369;49.862;9.908;2023-07-31T07:00:06;98062.06;;;20.99;59.15
64876;BME280;51369;49.862;9.908;2023-07-31T07:02:31;98056.56;;;20.99;59.00
64876;BME280;51369;49.862;9.908;2023-07-31T07:04:57;98051.81;;;21.01;58.01
64876;BME280;51369;49.862;9.908;2023-07-31T07:07:22;98047.91;;;21.03;58.71
64876;BME280;51369;49.862;9.908;2023-07-31T07:09:48;98051.25;;;21.07;58.48
64876;BME280;51369;49.862;9.908;2023-07-31T07:12:13;98051.56;;;21.13;58.58
64876;BME280;51369;49.862;9.908;2023-07-31T07:14:38;98045.38;;;21.21;59.22
64876;BME280;51369;49.862;9.908;2023-07-31T07:17:04;98051.06;;;21.29;58.83
64876;BME280;51369;49.862;9.908;2023-07-31T07:19:30;98049.50;;;21.36;59.01
64876;BME280;51369;49.862;9.908;2023-07-31T07:21:55;98052.56;;;21.43;58.77
64876;BME280;51369;49.862;9.908;2023-07-31T07:24:21;98032.91;;;21.48;58.78
64876;BME280;51369;49.862;9.908;2023-07-31T07:26:46;98044.34;;;21.53;57.92
64876;BME280;51369;49.862;9.908;2023-07-31T07:29:12;98042.03;;;21.58;58.35
64876;BME280;51369;49.862;9.908;2023-07-31T07:31:37;98038.72;;;21.64;57.88
64876;BME280;51369;49.862;9.908;2023-07-31T07:34:02;98036.41;;;21.69;57.54
64876;BME280;51369;49.862;9.908;2023-07-31T07:36:28;98037.72;;;21.74;57.52
64876;BME280;51369;49.862;9.908;2023-07-31T07:38:54;98035.41;;;21.80;57.95
64876;BME280;51369;49.862;9.908;2023-07-31T07:41:19;98034.97;;;21.84;58.09
64876;BME280;51369;49.862;9.908;2023-07-31T07:43:45;98027.16;;;21.89;58.02
64876;BME280;51369;49.862;9.908;2023-07-31T07:46:10;98021.22;;;21.94;57.95
64876;BME280;51369;49.862;9.908;2023-07-31T07:48:36;98020.63;;;22.00;57.51
64876;BME280;51369;49.862;9.908;2023-07-31T07:51:01;98015.88;;;22.12;57.27
64876;BME280;51369;49.862;9.908;2023-07-31T07:53:26;98008.34;;;22.23;56.07
64876;BME280;51369;49.862;9.908;2023-07-31T07:55:52;98013.69;;;22.34;56.61
64876;BME280;51369;49.862;9.908;2023-07-31T07:58:17;98011.78;;;22.45;56.48
64876;BME280;51369;49.862;9.908;2023-07-31T08:00:48;98010.16;;;22.52;56.33
64876;BME280;51369;49.862;9.908;2023-07-31T08:03:14;98014.88;;;22.59;56.75
64876;BME280;51369;49.862;9.908;2023-07-31T08:05:39;98009.09;;;22.62;56.21
64876;BME280;51369;49.862;9.908;2023-07-31T08:08:05;98010.53;;;22.66;56.02
64876;BME280;51369;49.862;9.908;2023-07-31T08:10:30;98015.16;;;22.66;55.78
64876;BME280;51369;49.862;9.908;2023-07-31T08:12:56;98019.66;;;22.67;55.88
64876;BME280;51369;49.862;9.908;2023-07-31T08:15:21;98018.78;;;22.66;56.03
64876;BME280;51369;49.862;9.908;2023-07-31T08:17:47;98018.06;;;22.64;55.89
64876;BME280;51369;49.862;9.908;2023-07-31T08:20:12;98024.44;;;22.65;56.71
64876;BME280;51369;49.862;9.908;2023-07-31T08:22:37;98016.31;;;22.63;56.35
64876;BME280;51369;49.862;9.908;2023-07-31T08:25:03;98013.72;;;22.62;56.00
64876;BME280;51369;49.862;9.908;2023-07-31T08:27:28;98024.16;;;22.58;55.94
64876;BME280;51369;49.862;9.908;2023-07-31T08:29:54;98019.97;;;22.54;56.03
64876;BME280;51369;49.862;9.908;2023-07-31T08:32:19;98014.81;;;22.51;56.56
64876;BME280;51369;49.862;9.908;2023-07-31T08:34:45;98009.44;;;22.50;56.59
64876;BME280;51369;49.862;9.908;2023-07-31T08:37:10;98013.78;;;22.52;56.62
64876;BME280;51369;49.862;9.908;2023-07-31T08:39:36;98007.34;;;22.61;56.73
64876;BME280;51369;49.862;9.908;2023-07-31T08:42:07;98006.16;;;22.73;56.33
64876;BME280;51369;49.862;9.908;2023-07-31T08:44:33;98005.53;;;22.89;56.81
64876;BME280;51369;49.862;9.908;2023-07-31T08:47:00;98004.75;;;23.07;56.60
64876;BME280;51369;49.862;9.908;2023-07-31T08:49:26;98005.97;;;23.22;56.24
64876;BME280;51369;49.862;9.908;2023-07-31T08:51:52;97997.19;;;23.36;55.40
64876;BME280;51369;49.862;9.908;2023-07-31T08:54:18;97997.28;;;23.44;55.35
64876;BME280;51369;49.862;9.908;2023-07-31T08:56:44;97993.91;;;23.50;54.66
64876;BME280;51369;49.862;9.908;2023-07-31T08:59:11;97991.56;;;23.55;54.41
64876;BME280;51369;49.862;9.908;2023-07-31T09:01:43;97992.69;;;23.62;55.18
64876;BME280;51369;49.862;9.908;2023-07-31T09:04:09;97990.41;;;23.76;55.28
64876;BME280;51369;49.862;9.908;2023-07-31T09:06:36;97988.44;;;23.86;54.45
64876;BME280;51369;49.862;9.908;2023-07-31T09:09:02;97980.38;;;23.92;54.43
64876;BME280;51369;49.862;9.908;2023-07-31T09:11:28;97991.66;;;23.99;54.32
64876;BME280;51369;49.862;9.908;2023-07-31T09:13:57;97987.72;;;24.01;53.95
64876;BME280;51369;49.862;9.908;2023-07-31T09:16:29;97990.47;;;24.01;53.56
64876;BME280;51369;49.862;9.908;2023-07-31T09:18:57;97986.84;;;24.01;54.05
64876;BME280;51369;49.862;9.908;2023-07-31T09:21:24;97987.88;;;24.00;54.43
64876;BME280;51369;49.862;9.908;2023-07-31T09:23:50;97975.59;;;23.94;53.80
64876;BME280;51369;49.862;9.908;2023-07-31T09:26:35;97985.03;;;23.92;53.74
64876;BME280;51369;49.862;9.908;2023-07-31T09:29:04;97970.47;;;23.99;53.76
64876;BME280;51369;49.862;9.908;2023-07-31T09:31:41;97965.66;;;24.01;53.40
64876;BME280;51369;49.862;9.908;2023-07-31T09:34:06;97961.06;;;24.10;53.82
64876;BME280;51369;49.862;9.908;2023-07-31T09:36:32;97958.28;;;24.28;54.02
64876;BME280;51369;49.862;9.908;2023-07-31T09:39:04;97953.25;;;24.49;52.72
64876;BME280;51369;49.862;9.908;2023-07-31T09:41:30;97946.34;;;24.79;52.34
64876;BME280;51369;49.862;9.908;2023-07-31T09:43:55;97946.84;;;25.09;52.50
64876;BME280;51369;49.862;9.908;2023-07-31T09:46:21;97947.25;;;25.30;51.12
64876;BME280;51369;49.862;9.908;2023-07-31T09:49:09;97949.50;;;25.35;51.22
64876;BME280;51369;49.862;9.908;2023-07-31T09:51:38;97951.94;;;25.38;50.78
64876;BME280;51369;49.862;9.908;2023-07-31T09:54:14;97940.00;;;25.29;50.96
64876;BME280;51369;49.862;9.908;2023-07-31T09:56:44;97942.72;;;25.21;51.12
64876;BME280;51369;49.862;9.908;2023-07-31T10:02:59;97938.72;;;25.07;52.27
64876;BME280;51369;49.862;9.908;2023-07-31T10:05:30;97936.94;;;24.98;51.28
64876;BME280;51369;49.862;9.908;2023-07-31T10:07:57;97935.34;;;24.95;51.25
64876;BME280;51369;49.862;9.908;2023-07-31T10:10:22;97935.16;;;24.89;50.82
64876;BME280;51369;49.862;9.908;2023-07-31T10:12:49;97928.25;;;24.85;51.40
64876;BME280;51369;49.862;9.908;2023-07-31T10:15:18;97922.34;;;24.80;50.79
64876;BME280;51369;49.862;9.908;2023-07-31T10:17:44;97926.63;;;24.74;51.28
64876;BME280;51369;49.862;9.908;2023-07-31T10:20:11;97927.28;;;24.68;51.59
64876;BME280;51369;49.862;9.908;2023-07-31T10:22:38;97935.22;;;24.63;51.21
64876;BME280;51369;49.862;9.908;2023-07-31T10:25:04;97930.66;;;24.54;51.44
64876;BME280;51369;49.862;9.908;2023-07-31T10:27:35;97932.19;;;24.48;52.32
64876;BME280;51369;49.862;9.908;2023-07-31T10:30:00;97931.50;;;24.46;52.02
64876;BME280;51369;49.862;9.908;2023-07-31T10:32:28;97926.28;;;24.43;52.12
64876;BME280;51369;49.862;9.908;2023-07-31T10:34:54;97937.50;;;24.42;52.21
64876;BME280;51369;49.862;9.908;2023-07-31T10:37:40;97935.94;;;24.39;51.95
64876;BME280;51369;49.862;9.908;2023-07-31T10:40:13;97931.81;;;24.43;51.80
64876;BME280;51369;49.862;9.908;2023-07-31T10:42:57;97935.59;;;24.42;52.13
64876;BME280;51369;49.862;9.908;2023-07-31T10:45:31;97921.09;;;24.40;51.62
64876;BME280;51369;49.862;9.908;2023-07-31T10:48:02;97927.28;;;24.34;52.08
64876;BME280;51369;49.862;9.908;2023-07-31T10:50:29;97913.47;;;24.26;52.44
64876;BME280;51369;49.862;9.908;2023-07-31T10:52:56;97905.47;;;24.23;52.63
64876;BME280;51369;49.862;9.908;2023-07-31T10:55:42;97911.47;;;24.18;52.81
64876;BME280;51369;49.862;9.908;2023-07-31T10:58:11;97904.78;;;24.21;52.99
64876;BME280;51369;49.862;9.908;2023-07-31T11:00:38;97901.16;;;24.20;52.78
64876;BME280;51369;49.862;9.908;2023-07-31T11:03:12;97894.44;;;24.23;52.76
64876;BME280;51369;49.862;9.908;2023-07-31T11:05:59;97890.88;;;24.30;53.06
64876;BME280;51369;49.862;9.908;2023-07-31T11:08:30;97887.88;;;24.50;53.34
64876;BME280;51369;49.862;9.908;2023-07-31T11:16:05;97885.25;;;24.82;51.89
64876;BME280;51369;49.862;9.908;2023-07-31T11:18:30;97872.66;;;24.80;51.41
64876;BME280;51369;49.862;9.908;2023-07-31T11:20:56;97881.09;;;24.78;50.89
64876;BME280;51369;49.862;9.908;2023-07-31T11:23:22;97879.53;;;24.76;50.90
64876;BME280;51369;49.862;9.908;2023-07-31T11:25:48;97867.78;;;24.74;50.75
64876;BME280;51369;49.862;9.908;2023-07-31T11:28:15;97860.03;;;24.77;50.36
64876;BME280;51369;49.862;9.908;2023-07-31T11:30:42;97866.97;;;24.81;50.16
64876;BME280;51369;49.862;9.908;2023-07-31T11:33:09;97868.03;;;24.88;51.11
64876;BME280;51369;49.862;9.908;2023-07-31T11:35:40;97864.75;;;24.93;50.21
64876;BME280;51369;49.862;9.908;2023-07-31T11:38:07;97872.41;;;24.99;49.87
64876;BME280;51369;49.862;9.908;2023-07-31T11:40:41;97875.00;;;25.01;50.33
64876;BME280;51369;49.862;9.908;2023-07-31T11:43:07;97882.78;;;25.05;50.17
64876;BME280;51369;49.862;9.908;2023-07-31T11:45:33;97877.25;;;25.05;49.61
64876;BME280;51369;49.862;9.908;2023-07-31T11:48:00;97875.34;;;25.06;50.54
64876;BME280;51369;49.862;9.908;2023-07-31T11:50:26;97859.47;;;25.08;50.01
64876;BME280;51369;49.862;9.908;2023-07-31T11:52:55;97869.31;;;25.10;49.79
64876;BME280;51369;49.862;9.908;2023-07-31T11:55:23;97859.66;;;25.14;50.23
64876;BME280;51369;49.862;9.908;2023-07-31T11:57:49;97860.19;;;25.18;50.16
64876;BME280;51369;49.862;9.908;2023-07-31T12:00:16;97854.31;;;25.21;49.97
64876;BME280;51369;49.862;9.908;2023-07-31T12:02:42;97853.66;;;25.27;49.26
64876;BME280;51369;49.862;9.908;2023-07-31T12:05:12;97848.66;;;25.39;50.01
64876;BME280;51369;49.862;9.908;2023-07-31T12:07:52;97846.75;;;25.55;49.62
64876;BME280;51369;49.862;9.908;2023-07-31T12:10:28;97850.59;;;25.71;49.50
64876;BME280;51369;49.862;9.908;2023-07-31T12:13:01;97842.47;;;25.77;49.01
64876;BME280;51369;49.862;9.908;2023-07-31T12:16:16;97825.69;;;25.79;49.22
64876;BME280;51369;49.862;9.908;2023-07-31T12:18:24;97840.38;;;25.79;49.05
64876;BME280;51369;49.862;9.908;2023-07-31T12:21:08;97840.41;;;25.71;51.05
64876;BME280;51369;49.862;9.908;2023-07-31T12:23:37;97836.94;;;25.69;50.12
64876;BME280;51369;49.862;9.908;2023-07-31T12:28:50;97826.72;;;25.61;49.11
64876;BME280;51369;49.862;9.908;2023-07-31T12:31:20;97826.75;;;25.70;49.02
64876;BME280;51369;49.862;9.908;2023-07-31T12:33:48;97821.38;;;25.76;48.74
64876;BME280;51369;49.862;9.908;2023-07-31T12:36:20;97817.22;;;25.80;49.14
64876;BME280;51369;49.862;9.908;2023-07-31T12:38:46;97823.63;;;25.89;49.87
64876;BME280;51369;49.862;9.908;2023-07-31T12:41:12;97824.81;;;25.94;49.42
64876;BME280;51369;49.862;9.908;2023-07-31T12:43:39;97816.16;;;25.98;49.13
64876;BME280;51369;49.862;9.908;2023-07-31T12:46:05;97815.13;;;25.99;48.87
64876;BME280;51369;49.862;9.908;2023-07-31T12:48:32;97805.28;;;25.96;48.84
64876;BME280;51369;49.862;9.908;2023-07-31T12:50:58;97803.91;;;25.92;49.13
64876;BME280;51369;49.862;9.908;2023-07-31T12:53:23;97794.41;;;25.86;49.22
64876;BME280;51369;49.862;9.908;2023-07-31T12:55:49;97794.25;;;25.80;49.17
64876;BME280;51369;49.862;9.908;2023-07-31T12:58:15;97790.09;;;25.76;49.52
64876;BME280;51369;49.862;9.908;2023-07-31T13:00:41;97797.19;;;25.70;50.09
64876;BME280;51369;49.862;9.908;2023-07-31T13:03:06;97797.84;;;25.64;49.62
64876;BME280;51369;49.862;9.908;2023-07-31T13:05:32;97811.16;;;25.60;51.32
64876;BME280;51369;49.862;9.908;2023-07-31T13:07:57;97811.00;;;25.54;50.03
64876;BME280;51369;49.862;9.908;2023-07-31T13:10:23;97810.13;;;25.61;50.71
64876;BME280;51369;49.862;9.908;2023-07-31T13:12:49;97795.78;;;25.82;51.10